首页
METAR-TAF:

METAR-TAF

机场 :

Stewart International Airport

Newburgh, 紐約州, 美国

纬度: 41-30N, 经度: 074-06W, 海拔: 150米

当前天气观测

该预报发布于43分钟前的05:00 UTC
静风
温度 18°C
湿度 100%
气压 1012 hPa
能見度: 4.8公里
多云层高于5000英尺
轻雾

METAR: KSWF 170500Z 00000KT 3SM BR BKN050 18/18 A2987

时间: 01:43 (05:43 UTC)

预报

该预报发布于2小时和24分钟前的03:19 UTC
预报有效从17日的 03点(UTC)到 18日的 06点(UTC)
风速3节,风向多变
能見度: 10公里
阴天层高于5000英尺
从 17日的 1400点(UTC)
风速5节,风向北转东北
能見度: 10公里
散云层高于4000英尺
多云层高于15000英尺
从 17日的 1800点(UTC)
风速5节,风向西转西南
能見度: 10公里
散云层高于4000英尺
多云层高于15000英尺
从 18日的 0000点(UTC)
风速5节,风向多变
能見度: 10公里
多云层高于5000英尺
附近有阵雨

TAF: KSWF 170319Z 1703/1806 VRB03KT P6SM OVC050 FM171400 02005KT P6SM SCT040 BKN150 FM171800 24005KT P6SM SCT040 BKN150 FM180000 VRB05KT P6SM VCSH BKN050 AMD NOT SKED

超过4000个机场的气象观测和天气预报(METAR&TAF报告)。

可查询的气象台以黄色和红色小点在地图上表示。

将鼠标移到小点上方,可查看气象台名称。

然后点击查看天气观测和预报。

如需切换地图:点击带黑十字的绿色按钮放大地图;点击带横线的绿色按钮缩小地图;或者点击绿色箭头查看邻近地区的地图。


METAR-TAF: